sensor_id;sensor_type;location;lat;lon;timestamp;P1;durP1;ratioP1;P2;durP2;ratioP2
39772;SDS011;25451;51.960;6.250;2023-04-25T00:00:33;6.40;;;1.40;;
39772;SDS011;25451;51.960;6.250;2023-04-25T00:02:58;8.00;;;1.40;;
39772;SDS011;25451;51.960;6.250;2023-04-25T00:05:25;5.53;;;1.30;;
39772;SDS011;25451;51.960;6.250;2023-04-25T00:07:51;7.78;;;1.50;;
39772;SDS011;25451;51.960;6.250;2023-04-25T00:10:16;4.30;;;1.48;;
39772;SDS011;25451;51.960;6.250;2023-04-25T00:12:42;7.87;;;1.60;;
39772;SDS011;25451;51.960;6.250;2023-04-25T00:15:07;7.73;;;1.50;;
39772;SDS011;25451;51.960;6.250;2023-04-25T00:17:33;6.23;;;1.40;;
39772;SDS011;25451;51.960;6.250;2023-04-25T00:19:59;6.25;;;1.63;;
39772;SDS011;25451;51.960;6.250;2023-04-25T00:22:25;6.55;;;1.75;;
39772;SDS011;25451;51.960;6.250;2023-04-25T00:24:51;7.70;;;1.80;;
39772;SDS011;25451;51.960;6.250;2023-04-25T00:27:18;10.60;;;1.67;;
39772;SDS011;25451;51.960;6.250;2023-04-25T00:29:43;8.77;;;1.80;;
39772;SDS011;25451;51.960;6.250;2023-04-25T00:32:09;4.00;;;1.30;;
39772;SDS011;25451;51.960;6.250;2023-04-25T00:34:34;8.45;;;1.50;;
39772;SDS011;25451;51.960;6.250;2023-04-25T00:37:00;8.97;;;1.93;;
39772;SDS011;25451;51.960;6.250;2023-04-25T00:39:27;7.05;;;1.50;;
39772;SDS011;25451;51.960;6.250;2023-04-25T00:41:52;9.30;;;1.60;;
39772;SDS011;25451;51.960;6.250;2023-04-25T00:44:19;4.88;;;1.55;;
39772;SDS011;25451;51.960;6.250;2023-04-25T00:46:46;10.73;;;1.70;;
39772;SDS011;25451;51.960;6.250;2023-04-25T00:49:12;9.52;;;1.50;;
39772;SDS011;25451;51.960;6.250;2023-04-25T00:51:40;7.20;;;1.70;;
39772;SDS011;25451;51.960;6.250;2023-04-25T00:54:06;5.20;;;1.80;;
39772;SDS011;25451;51.960;6.250;2023-04-25T00:56:32;6.13;;;1.50;;
39772;SDS011;25451;51.960;6.250;2023-04-25T00:58:57;12.40;;;2.10;;
39772;SDS011;25451;51.960;6.250;2023-04-25T01:01:22;5.13;;;1.52;;
39772;SDS011;25451;51.960;6.250;2023-04-25T01:03:48;7.37;;;1.70;;
39772;SDS011;25451;51.960;6.250;2023-04-25T01:06:15;5.53;;;1.65;;
39772;SDS011;25451;51.960;6.250;2023-04-25T01:08:41;7.67;;;1.30;;
39772;SDS011;25451;51.960;6.250;2023-04-25T01:11:06;5.30;;;1.40;;
39772;SDS011;25451;51.960;6.250;2023-04-25T01:13:32;8.83;;;1.60;;
39772;SDS011;25451;51.960;6.250;2023-04-25T01:15:58;8.35;;;1.67;;
39772;SDS011;25451;51.960;6.250;2023-04-25T01:18:24;7.30;;;1.60;;
39772;SDS011;25451;51.960;6.250;2023-04-25T01:20:53;6.18;;;1.65;;
39772;SDS011;25451;51.960;6.250;2023-04-25T01:23:19;7.73;;;1.57;;
39772;SDS011;25451;51.960;6.250;2023-04-25T01:25:45;8.32;;;2.13;;
39772;SDS011;25451;51.960;6.250;2023-04-25T01:28:12;5.82;;;1.95;;
39772;SDS011;25451;51.960;6.250;2023-04-25T01:30:38;5.40;;;1.40;;
39772;SDS011;25451;51.960;6.250;2023-04-25T01:33:04;9.45;;;1.80;;
39772;SDS011;25451;51.960;6.250;2023-04-25T01:35:30;6.93;;;1.60;;
39772;SDS011;25451;51.960;6.250;2023-04-25T01:37:56;6.60;;;1.70;;
39772;SDS011;25451;51.960;6.250;2023-04-25T01:40:21;11.57;;;2.10;;
39772;SDS011;25451;51.960;6.250;2023-04-25T01:42:50;6.13;;;1.80;;
39772;SDS011;25451;51.960;6.250;2023-04-25T01:45:16;9.20;;;1.85;;
39772;SDS011;25451;51.960;6.250;2023-04-25T01:47:41;3.70;;;1.52;;
39772;SDS011;25451;51.960;6.250;2023-04-25T01:50:08;6.57;;;1.50;;
39772;SDS011;25451;51.960;6.250;2023-04-25T01:52:36;9.23;;;2.17;;
39772;SDS011;25451;51.960;6.250;2023-04-25T01:55:01;8.57;;;1.90;;
39772;SDS011;25451;51.960;6.250;2023-04-25T01:57:27;10.40;;;2.15;;
39772;SDS011;25451;51.960;6.250;2023-04-25T01:59:56;8.10;;;1.90;;
39772;SDS011;25451;51.960;6.250;2023-04-25T02:02:24;12.40;;;2.15;;
39772;SDS011;25451;51.960;6.250;2023-04-25T02:04:49;7.33;;;1.83;;
39772;SDS011;25451;51.960;6.250;2023-04-25T02:07:14;9.97;;;2.57;;
39772;SDS011;25451;51.960;6.250;2023-04-25T02:09:40;8.25;;;1.77;;
39772;SDS011;25451;51.960;6.250;2023-04-25T02:12:07;12.07;;;1.80;;
39772;SDS011;25451;51.960;6.250;2023-04-25T02:14:34;8.73;;;1.90;;
39772;SDS011;25451;51.960;6.250;2023-04-25T02:16:59;9.23;;;1.87;;
39772;SDS011;25451;51.960;6.250;2023-04-25T02:19:25;9.43;;;2.27;;
39772;SDS011;25451;51.960;6.250;2023-04-25T02:21:50;6.87;;;1.90;;
39772;SDS011;25451;51.960;6.250;2023-04-25T02:24:15;8.27;;;2.10;;
39772;SDS011;25451;51.960;6.250;2023-04-25T02:26:41;7.77;;;2.07;;
39772;SDS011;25451;51.960;6.250;2023-04-25T02:29:06;8.90;;;2.47;;
39772;SDS011;25451;51.960;6.250;2023-04-25T02:31:32;11.57;;;2.22;;
39772;SDS011;25451;51.960;6.250;2023-04-25T02:33:57;9.50;;;2.13;;
39772;SDS011;25451;51.960;6.250;2023-04-25T02:36:22;7.27;;;2.20;;
39772;SDS011;25451;51.960;6.250;2023-04-25T02:38:48;7.28;;;2.00;;
39772;SDS011;25451;51.960;6.250;2023-04-25T02:41:14;10.83;;;2.17;;
39772;SDS011;25451;51.960;6.250;2023-04-25T02:43:39;14.47;;;2.47;;
39772;SDS011;25451;51.960;6.250;2023-04-25T02:46:05;9.67;;;2.23;;
39772;SDS011;25451;51.960;6.250;2023-04-25T02:48:30;7.27;;;2.20;;
39772;SDS011;25451;51.960;6.250;2023-04-25T02:50:55;11.87;;;2.37;;
39772;SDS011;25451;51.960;6.250;2023-04-25T02:53:20;12.27;;;2.20;;
39772;SDS011;25451;51.960;6.250;2023-04-25T02:55:46;6.07;;;1.80;;
39772;SDS011;25451;51.960;6.250;2023-04-25T02:58:11;8.20;;;2.03;;
39772;SDS011;25451;51.960;6.250;2023-04-25T03:00:36;13.88;;;2.75;;
39772;SDS011;25451;51.960;6.250;2023-04-25T03:03:02;10.35;;;2.08;;
39772;SDS011;25451;51.960;6.250;2023-04-25T03:05:27;7.00;;;1.90;;
39772;SDS011;25451;51.960;6.250;2023-04-25T03:07:52;7.53;;;1.70;;
39772;SDS011;25451;51.960;6.250;2023-04-25T03:10:17;11.10;;;2.00;;
39772;SDS011;25451;51.960;6.250;2023-04-25T03:12:43;4.87;;;1.73;;
39772;SDS011;25451;51.960;6.250;2023-04-25T03:15:08;11.57;;;2.00;;
39772;SDS011;25451;51.960;6.250;2023-04-25T03:17:34;8.82;;;1.67;;
39772;SDS011;25451;51.960;6.250;2023-04-25T03:19:59;7.00;;;1.73;;
39772;SDS011;25451;51.960;6.250;2023-04-25T03:22:24;10.93;;;2.40;;
39772;SDS011;25451;51.960;6.250;2023-04-25T03:24:50;9.47;;;2.20;;
39772;SDS011;25451;51.960;6.250;2023-04-25T03:27:16;6.47;;;1.80;;
39772;SDS011;25451;51.960;6.250;2023-04-25T03:29:41;10.35;;;2.17;;
39772;SDS011;25451;51.960;6.250;2023-04-25T03:32:07;10.27;;;1.97;;
39772;SDS011;25451;51.960;6.250;2023-04-25T03:34:32;12.83;;;1.90;;
39772;SDS011;25451;51.960;6.250;2023-04-25T03:36:57;6.87;;;1.70;;
39772;SDS011;25451;51.960;6.250;2023-04-25T03:39:23;9.07;;;2.20;;
39772;SDS011;25451;51.960;6.250;2023-04-25T03:41:48;8.40;;;2.00;;
39772;SDS011;25451;51.960;6.250;2023-04-25T03:44:13;6.20;;;1.90;;
39772;SDS011;25451;51.960;6.250;2023-04-25T03:46:39;11.53;;;2.20;;
39772;SDS011;25451;51.960;6.250;2023-04-25T03:49:05;10.20;;;2.03;;
39772;SDS011;25451;51.960;6.250;2023-04-25T03:51:30;7.80;;;2.07;;
39772;SDS011;25451;51.960;6.250;2023-04-25T03:53:56;10.57;;;2.43;;
39772;SDS011;25451;51.960;6.250;2023-04-25T03:56:21;5.23;;;1.93;;
39772;SDS011;25451;51.960;6.250;2023-04-25T03:58:46;8.47;;;2.40;;
39772;SDS011;25451;51.960;6.250;2023-04-25T04:01:12;6.93;;;2.00;;
39772;SDS011;25451;51.960;6.250;2023-04-25T04:03:38;11.27;;;2.40;;
39772;SDS011;25451;51.960;6.250;2023-04-25T04:06:03;7.37;;;2.10;;
39772;SDS011;25451;51.960;6.250;2023-04-25T04:08:30;9.70;;;1.95;;
39772;SDS011;25451;51.960;6.250;2023-04-25T04:10:56;7.83;;;1.87;;
39772;SDS011;25451;51.960;6.250;2023-04-25T04:13:23;8.70;;;2.28;;
39772;SDS011;25451;51.960;6.250;2023-04-25T04:15:48;7.50;;;1.93;;
39772;SDS011;25451;51.960;6.250;2023-04-25T04:18:13;4.03;;;1.70;;
39772;SDS011;25451;51.960;6.250;2023-04-25T04:20:39;7.53;;;2.00;;
39772;SDS011;25451;51.960;6.250;2023-04-25T04:23:04;9.43;;;2.27;;
39772;SDS011;25451;51.960;6.250;2023-04-25T04:25:30;10.82;;;2.08;;
39772;SDS011;25451;51.960;6.250;2023-04-25T04:27:56;8.53;;;2.33;;
39772;SDS011;25451;51.960;6.250;2023-04-25T04:30:22;9.60;;;2.23;;
39772;SDS011;25451;51.960;6.250;2023-04-25T04:32:54;6.13;;;1.90;;
39772;SDS011;25451;51.960;6.250;2023-04-25T04:35:20;8.38;;;2.13;;
39772;SDS011;25451;51.960;6.250;2023-04-25T04:37:46;11.57;;;1.97;;
39772;SDS011;25451;51.960;6.250;2023-04-25T04:40:12;10.60;;;2.10;;
39772;SDS011;25451;51.960;6.250;2023-04-25T04:42:40;9.77;;;2.30;;
39772;SDS011;25451;51.960;6.250;2023-04-25T04:45:06;8.88;;;2.08;;
39772;SDS011;25451;51.960;6.250;2023-04-25T04:47:31;8.80;;;2.30;;
39772;SDS011;25451;51.960;6.250;2023-04-25T04:49:57;5.67;;;1.70;;
39772;SDS011;25451;51.960;6.250;2023-04-25T04:52:22;8.07;;;2.13;;
39772;SDS011;25451;51.960;6.250;2023-04-25T04:54:48;8.73;;;2.10;;
39772;SDS011;25451;51.960;6.250;2023-04-25T04:57:13;5.47;;;1.77;;
39772;SDS011;25451;51.960;6.250;2023-04-25T04:59:38;6.93;;;2.13;;
39772;SDS011;25451;51.960;6.250;2023-04-25T05:02:04;7.40;;;1.67;;
39772;SDS011;25451;51.960;6.250;2023-04-25T05:04:29;9.03;;;1.80;;
39772;SDS011;25451;51.960;6.250;2023-04-25T05:06:54;8.83;;;2.07;;
39772;SDS011;25451;51.960;6.250;2023-04-25T05:09:20;7.20;;;2.20;;
39772;SDS011;25451;51.960;6.250;2023-04-25T05:11:45;10.37;;;2.13;;
39772;SDS011;25451;51.960;6.250;2023-04-25T05:14:10;5.13;;;2.00;;
39772;SDS011;25451;51.960;6.250;2023-04-25T05:16:36;6.23;;;1.83;;
39772;SDS011;25451;51.960;6.250;2023-04-25T05:19:01;6.93;;;1.70;;
39772;SDS011;25451;51.960;6.250;2023-04-25T05:21:26;6.77;;;1.93;;
39772;SDS011;25451;51.960;6.250;2023-04-25T05:23:53;7.22;;;1.77;;
39772;SDS011;25451;51.960;6.250;2023-04-25T05:26:19;5.97;;;1.80;;
39772;SDS011;25451;51.960;6.250;2023-04-25T05:28:45;5.60;;;1.85;;
39772;SDS011;25451;51.960;6.250;2023-04-25T05:31:11;9.40;;;2.47;;
39772;SDS011;25451;51.960;6.250;2023-04-25T05:33:36;8.75;;;2.10;;
39772;SDS011;25451;51.960;6.250;2023-04-25T05:36:02;9.40;;;2.23;;
39772;SDS011;25451;51.960;6.250;2023-04-25T05:38:27;8.73;;;1.57;;
39772;SDS011;25451;51.960;6.250;2023-04-25T05:40:52;7.60;;;1.73;;
39772;SDS011;25451;51.960;6.250;2023-04-25T05:43:18;7.75;;;1.60;;
39772;SDS011;25451;51.960;6.250;2023-04-25T05:45:43;9.02;;;1.80;;
39772;SDS011;25451;51.960;6.250;2023-04-25T05:48:08;6.10;;;1.88;;
39772;SDS011;25451;51.960;6.250;2023-04-25T05:50:34;6.43;;;1.73;;
39772;SDS011;25451;51.960;6.250;2023-04-25T05:52:59;9.40;;;1.60;;
39772;SDS011;25451;51.960;6.250;2023-04-25T05:55:24;8.23;;;1.60;;
39772;SDS011;25451;51.960;6.250;2023-04-25T05:57:50;5.70;;;1.50;;
39772;SDS011;25451;51.960;6.250;2023-04-25T06:00:15;6.70;;;1.47;;
39772;SDS011;25451;51.960;6.250;2023-04-25T06:02:41;4.97;;;1.30;;
39772;SDS011;25451;51.960;6.250;2023-04-25T06:05:06;4.38;;;1.40;;
39772;SDS011;25451;51.960;6.250;2023-04-25T06:07:32;4.40;;;1.20;;
39772;SDS011;25451;51.960;6.250;2023-04-25T06:09:58;5.73;;;1.33;;
39772;SDS011;25451;51.960;6.250;2023-04-25T06:12:24;3.40;;;1.13;;
39772;SDS011;25451;51.960;6.250;2023-04-25T06:14:49;5.93;;;1.30;;
39772;SDS011;25451;51.960;6.250;2023-04-25T06:17:14;5.50;;;1.20;;
39772;SDS011;25451;51.960;6.250;2023-04-25T06:19:40;4.90;;;1.30;;
39772;SDS011;25451;51.960;6.250;2023-04-25T06:22:05;4.53;;;1.03;;
39772;SDS011;25451;51.960;6.250;2023-04-25T06:24:32;4.00;;;1.10;;
39772;SDS011;25451;51.960;6.250;2023-04-25T06:26:58;4.80;;;0.90;;
39772;SDS011;25451;51.960;6.250;2023-04-25T06:29:23;4.50;;;1.00;;
39772;SDS011;25451;51.960;6.250;2023-04-25T06:31:48;3.10;;;1.10;;
39772;SDS011;25451;51.960;6.250;2023-04-25T06:34:14;3.20;;;1.00;;
39772;SDS011;25451;51.960;6.250;2023-04-25T06:36:40;7.40;;;1.25;;
39772;SDS011;25451;51.960;6.250;2023-04-25T06:39:06;3.72;;;0.90;;
39772;SDS011;25451;51.960;6.250;2023-04-25T06:41:31;3.13;;;0.90;;
39772;SDS011;25451;51.960;6.250;2023-04-25T06:43:57;3.57;;;1.00;;
39772;SDS011;25451;51.960;6.250;2023-04-25T06:46:22;3.37;;;1.00;;
39772;SDS011;25451;51.960;6.250;2023-04-25T06:48:47;4.10;;;1.10;;
39772;SDS011;25451;51.960;6.250;2023-04-25T06:51:12;3.28;;;1.00;;
39772;SDS011;25451;51.960;6.250;2023-04-25T06:53:38;5.23;;;1.10;;
39772;SDS011;25451;51.960;6.250;2023-04-25T06:56:04;5.60;;;1.40;;
39772;SDS011;25451;51.960;6.250;2023-04-25T06:58:29;3.33;;;1.00;;
39772;SDS011;25451;51.960;6.250;2023-04-25T07:00:54;5.67;;;1.10;;
39772;SDS011;25451;51.960;6.250;2023-04-25T07:03:20;5.07;;;1.10;;
39772;SDS011;25451;51.960;6.250;2023-04-25T07:05:45;6.77;;;1.30;;
39772;SDS011;25451;51.960;6.250;2023-04-25T07:08:11;4.57;;;1.00;;
39772;SDS011;25451;51.960;6.250;2023-04-25T07:10:36;3.70;;;0.90;;
39772;SDS011;25451;51.960;6.250;2023-04-25T07:13:01;4.50;;;1.13;;
39772;SDS011;25451;51.960;6.250;2023-04-25T07:15:27;8.10;;;1.27;;
39772;SDS011;25451;51.960;6.250;2023-04-25T07:17:52;3.63;;;1.10;;
39772;SDS011;25451;51.960;6.250;2023-04-25T07:20:17;6.10;;;1.13;;
39772;SDS011;25451;51.960;6.250;2023-04-25T07:22:43;3.87;;;1.00;;
39772;SDS011;25451;51.960;6.250;2023-04-25T07:25:09;4.30;;;1.13;;
39772;SDS011;25451;51.960;6.250;2023-04-25T07:27:34;6.87;;;1.20;;
39772;SDS011;25451;51.960;6.250;2023-04-25T07:30:00;5.57;;;1.53;;
39772;SDS011;25451;51.960;6.250;2023-04-25T07:32:25;4.63;;;1.00;;
39772;SDS011;25451;51.960;6.250;2023-04-25T07:34:51;4.27;;;1.10;;
39772;SDS011;25451;51.960;6.250;2023-04-25T07:37:17;3.55;;;0.90;;
39772;SDS011;25451;51.960;6.250;2023-04-25T07:39:43;7.47;;;1.40;;
39772;SDS011;25451;51.960;6.250;2023-04-25T07:42:10;3.00;;;1.00;;
39772;SDS011;25451;51.960;6.250;2023-04-25T07:44:36;7.90;;;1.23;;
39772;SDS011;25451;51.960;6.250;2023-04-25T07:47:06;4.30;;;1.30;;
39772;SDS011;25451;51.960;6.250;2023-04-25T07:49:33;6.80;;;1.00;;
39772;SDS011;25451;51.960;6.250;2023-04-25T07:51:59;4.75;;;1.05;;
39772;SDS011;25451;51.960;6.250;2023-04-25T07:54:25;5.20;;;0.77;;
39772;SDS011;25451;51.960;6.250;2023-04-25T07:56:50;7.10;;;0.93;;
39772;SDS011;25451;51.960;6.250;2023-04-25T07:59:16;3.60;;;0.90;;
39772;SDS011;25451;51.960;6.250;2023-04-25T08:01:41;5.50;;;1.10;;
39772;SDS011;25451;51.960;6.250;2023-04-25T08:04:06;10.03;;;1.23;;
39772;SDS011;25451;51.960;6.250;2023-04-25T08:06:31;5.40;;;1.30;;
39772;SDS011;25451;51.960;6.250;2023-04-25T08:08:57;6.20;;;1.25;;
39772;SDS011;25451;51.960;6.250;2023-04-25T08:11:23;6.55;;;1.25;;
39772;SDS011;25451;51.960;6.250;2023-04-25T08:13:48;7.43;;;1.20;;
39772;SDS011;25451;51.960;6.250;2023-04-25T08:16:13;6.77;;;1.13;;
39772;SDS011;25451;51.960;6.250;2023-04-25T08:18:38;6.77;;;1.10;;
39772;SDS011;25451;51.960;6.250;2023-04-25T08:21:04;4.37;;;1.30;;
39772;SDS011;25451;51.960;6.250;2023-04-25T08:23:29;4.80;;;1.10;;
39772;SDS011;25451;51.960;6.250;2023-04-25T08:25:54;6.53;;;1.47;;
39772;SDS011;25451;51.960;6.250;2023-04-25T08:28:20;4.63;;;0.90;;
39772;SDS011;25451;51.960;6.250;2023-04-25T08:30:45;4.88;;;0.93;;
39772;SDS011;25451;51.960;6.250;2023-04-25T08:33:10;6.10;;;1.50;;
39772;SDS011;25451;51.960;6.250;2023-04-25T08:35:36;4.47;;;0.93;;
39772;SDS011;25451;51.960;6.250;2023-04-25T08:38:01;6.90;;;1.00;;
39772;SDS011;25451;51.960;6.250;2023-04-25T08:40:27;8.50;;;1.00;;
39772;SDS011;25451;51.960;6.250;2023-04-25T08:42:58;6.10;;;1.00;;
39772;SDS011;25451;51.960;6.250;2023-04-25T08:45:26;6.72;;;1.05;;
39772;SDS011;25451;51.960;6.250;2023-04-25T08:47:54;6.35;;;1.02;;
39772;SDS011;25451;51.960;6.250;2023-04-25T08:50:22;3.50;;;0.73;;
39772;SDS011;25451;51.960;6.250;2023-04-25T08:52:47;1.93;;;0.70;;
39772;SDS011;25451;51.960;6.250;2023-04-25T08:55:17;2.58;;;0.70;;
39772;SDS011;25451;51.960;6.250;2023-04-25T08:57:43;1.80;;;0.80;;
39772;SDS011;25451;51.960;6.250;2023-04-25T09:00:10;2.70;;;0.70;;
39772;SDS011;25451;51.960;6.250;2023-04-25T09:02:37;3.55;;;1.10;;
39772;SDS011;25451;51.960;6.250;2023-04-25T09:05:07;3.08;;;0.70;;
39772;SDS011;25451;51.960;6.250;2023-04-25T09:07:34;2.00;;;0.68;;
39772;SDS011;25451;51.960;6.250;2023-04-25T09:10:00;5.03;;;1.17;;
39772;SDS011;25451;51.960;6.250;2023-04-25T09:12:28;3.42;;;0.90;;
39772;SDS011;25451;51.960;6.250;2023-04-25T09:15:07;2.83;;;0.70;;
39772;SDS011;25451;51.960;6.250;2023-04-25T09:17:36;2.03;;;1.17;;
39772;SDS011;25451;51.960;6.250;2023-04-25T09:20:14;5.47;;;0.80;;
39772;SDS011;25451;51.960;6.250;2023-04-25T09:22:40;3.28;;;1.00;;
39772;SDS011;25451;51.960;6.250;2023-04-25T09:25:09;4.73;;;0.80;;
39772;SDS011;25451;51.960;6.250;2023-04-25T09:27:37;1.30;;;0.80;;
39772;SDS011;25451;51.960;6.250;2023-04-25T09:30:15;3.65;;;0.80;;
39772;SDS011;25451;51.960;6.250;2023-04-25T09:32:42;4.43;;;0.90;;
39772;SDS011;25451;51.960;6.250;2023-04-25T09:35:08;4.63;;;0.83;;
39772;SDS011;25451;51.960;6.250;2023-04-25T09:37:34;5.20;;;0.88;;
39772;SDS011;25451;51.960;6.250;2023-04-25T09:40:00;3.38;;;0.90;;
39772;SDS011;25451;51.960;6.250;2023-04-25T09:42:30;3.27;;;0.90;;
39772;SDS011;25451;51.960;6.250;2023-04-25T09:44:57;5.28;;;0.82;;
39772;SDS011;25451;51.960;6.250;2023-04-25T09:47:24;3.80;;;0.90;;
39772;SDS011;25451;51.960;6.250;2023-04-25T09:49:51;4.38;;;0.80;;
39772;SDS011;25451;51.960;6.250;2023-04-25T09:52:21;3.67;;;1.00;;
39772;SDS011;25451;51.960;6.250;2023-04-25T09:54:50;3.17;;;0.83;;
39772;SDS011;25451;51.960;6.250;2023-04-25T09:57:19;5.18;;;1.27;;
39772;SDS011;25451;51.960;6.250;2023-04-25T09:59:47;2.65;;;1.15;;
39772;SDS011;25451;51.960;6.250;2023-04-25T10:02:14;5.28;;;1.00;;
39772;SDS011;25451;51.960;6.250;2023-04-25T10:04:41;5.70;;;1.17;;
39772;SDS011;25451;51.960;6.250;2023-04-25T10:07:08;4.77;;;0.90;;
39772;SDS011;25451;51.960;6.250;2023-04-25T10:09:35;2.63;;;0.90;;
39772;SDS011;25451;51.960;6.250;2023-04-25T10:12:02;2.33;;;0.93;;
39772;SDS011;25451;51.960;6.250;2023-04-25T10:14:29;4.95;;;1.05;;
39772;SDS011;25451;51.960;6.250;2023-04-25T10:16:55;7.03;;;1.00;;
39772;SDS011;25451;51.960;6.250;2023-04-25T10:19:21;5.13;;;1.00;;
39772;SDS011;25451;51.960;6.250;2023-04-25T10:21:51;4.93;;;0.90;;
39772;SDS011;25451;51.960;6.250;2023-04-25T10:24:20;4.45;;;1.05;;
39772;SDS011;25451;51.960;6.250;2023-04-25T10:26:47;2.92;;;0.73;;
39772;SDS011;25451;51.960;6.250;2023-04-25T10:29:15;4.35;;;0.90;;
39772;SDS011;25451;51.960;6.250;2023-04-25T10:31:47;4.15;;;0.80;;
39772;SDS011;25451;51.960;6.250;2023-04-25T10:34:13;3.63;;;0.90;;
39772;SDS011;25451;51.960;6.250;2023-04-25T10:36:38;4.13;;;0.80;;
39772;SDS011;25451;51.960;6.250;2023-04-25T10:39:05;4.47;;;0.85;;
39772;SDS011;25451;51.960;6.250;2023-04-25T10:41:32;6.32;;;1.02;;
39772;SDS011;25451;51.960;6.250;2023-04-25T10:44:11;6.22;;;0.80;;
39772;SDS011;25451;51.960;6.250;2023-04-25T10:46:36;5.00;;;0.70;;
39772;SDS011;25451;51.960;6.250;2023-04-25T10:49:02;3.10;;;0.80;;
39772;SDS011;25451;51.960;6.250;2023-04-25T10:51:29;4.90;;;0.95;;
39772;SDS011;25451;51.960;6.250;2023-04-25T10:53:57;3.70;;;0.85;;
39772;SDS011;25451;51.960;6.250;2023-04-25T10:56:25;4.28;;;0.80;;
39772;SDS011;25451;51.960;6.250;2023-04-25T10:58:55;4.07;;;0.80;;
39772;SDS011;25451;51.960;6.250;2023-04-25T11:01:29;3.95;;;0.70;;
39772;SDS011;25451;51.960;6.250;2023-04-25T11:04:04;6.07;;;0.95;;
39772;SDS011;25451;51.960;6.250;2023-04-25T11:09:16;4.35;;;0.90;;
39772;SDS011;25451;51.960;6.250;2023-04-25T11:11:41;3.72;;;0.70;;
39772;SDS011;25451;51.960;6.250;2023-04-25T11:14:07;3.30;;;0.77;;
39772;SDS011;25451;51.960;6.250;2023-04-25T11:16:32;3.47;;;0.97;;
39772;SDS011;25451;51.960;6.250;2023-04-25T11:18:58;3.30;;;0.80;;
39772;SDS011;25451;51.960;6.250;2023-04-25T11:21:26;2.78;;;0.80;;
39772;SDS011;25451;51.960;6.250;2023-04-25T11:23:53;3.23;;;1.20;;
39772;SDS011;25451;51.960;6.250;2023-04-25T11:26:20;4.72;;;0.70;;
39772;SDS011;25451;51.960;6.250;2023-04-25T11:28:47;3.60;;;0.90;;
39772;SDS011;25451;51.960;6.250;2023-04-25T11:31:14;1.40;;;0.68;;
39772;SDS011;25451;51.960;6.250;2023-04-25T11:33:39;5.93;;;1.03;;
39772;SDS011;25451;51.960;6.250;2023-04-25T11:36:05;3.95;;;0.70;;
39772;SDS011;25451;51.960;6.250;2023-04-25T11:38:31;3.30;;;0.90;;
39772;SDS011;25451;51.960;6.250;2023-04-25T11:40:57;7.82;;;0.80;;
39772;SDS011;25451;51.960;6.250;2023-04-25T11:43:22;2.80;;;0.67;;
39772;SDS011;25451;51.960;6.250;2023-04-25T11:45:51;1.77;;;0.60;;
39772;SDS011;25451;51.960;6.250;2023-04-25T11:48:17;4.43;;;0.80;;
39772;SDS011;25451;51.960;6.250;2023-04-25T11:50:43;3.90;;;0.82;;
39772;SDS011;25451;51.960;6.250;2023-04-25T11:53:08;4.77;;;1.00;;
39772;SDS011;25451;51.960;6.250;2023-04-25T11:55:35;3.20;;;0.90;;
39772;SDS011;25451;51.960;6.250;2023-04-25T11:58:01;4.70;;;1.07;;
39772;SDS011;25451;51.960;6.250;2023-04-25T12:00:28;3.80;;;0.80;;
39772;SDS011;25451;51.960;6.250;2023-04-25T12:02:54;5.83;;;0.77;;
39772;SDS011;25451;51.960;6.250;2023-04-25T12:05:23;3.22;;;0.70;;
39772;SDS011;25451;51.960;6.250;2023-04-25T12:07:50;5.03;;;0.90;;
39772;SDS011;25451;51.960;6.250;2023-04-25T12:10:16;2.40;;;0.93;;
39772;SDS011;25451;51.960;6.250;2023-04-25T12:12:43;4.80;;;0.85;;
39772;SDS011;25451;51.960;6.250;2023-04-25T12:15:11;2.72;;;0.80;;
39772;SDS011;25451;51.960;6.250;2023-04-25T12:17:37;6.47;;;0.83;;
39772;SDS011;25451;51.960;6.250;2023-04-25T12:20:07;3.55;;;0.80;;
39772;SDS011;25451;51.960;6.250;2023-04-25T12:22:37;2.42;;;0.70;;
39772;SDS011;25451;51.960;6.250;2023-04-25T12:25:03;2.63;;;0.70;;
39772;SDS011;25451;51.960;6.250;2023-04-25T12:27:30;2.90;;;0.70;;
39772;SDS011;25451;51.960;6.250;2023-04-25T12:29:57;3.80;;;0.80;;
39772;SDS011;25451;51.960;6.250;2023-04-25T12:32:23;2.70;;;0.85;;
39772;SDS011;25451;51.960;6.250;2023-04-25T12:34:48;3.37;;;0.87;;
39772;SDS011;25451;51.960;6.250;2023-04-25T12:37:14;2.87;;;0.70;;
39772;SDS011;25451;51.960;6.250;2023-04-25T12:39:40;4.43;;;0.80;;
39772;SDS011;25451;51.960;6.250;2023-04-25T12:42:05;3.97;;;0.90;;
39772;SDS011;25451;51.960;6.250;2023-04-25T12:44:32;3.38;;;0.73;;
39772;SDS011;25451;51.960;6.250;2023-04-25T12:46:58;4.23;;;0.80;;
39772;SDS011;25451;51.960;6.250;2023-04-25T12:49:24;3.47;;;0.70;;
39772;SDS011;25451;51.960;6.250;2023-04-25T12:51:50;5.45;;;1.00;;
39772;SDS011;25451;51.960;6.250;2023-04-25T12:54:16;2.33;;;0.75;;
39772;SDS011;25451;51.960;6.250;2023-04-25T12:56:42;5.30;;;1.02;;
39772;SDS011;25451;51.960;6.250;2023-04-25T12:59:07;1.50;;;0.80;;
39772;SDS011;25451;51.960;6.250;2023-04-25T13:01:32;2.40;;;0.90;;
39772;SDS011;25451;51.960;6.250;2023-04-25T13:03:58;6.40;;;0.87;;
39772;SDS011;25451;51.960;6.250;2023-04-25T13:06:23;5.10;;;2.43;;
39772;SDS011;25451;51.960;6.250;2023-04-25T13:08:49;8.85;;;1.10;;
39772;SDS011;25451;51.960;6.250;2023-04-25T13:11:14;11.87;;;1.10;;
39772;SDS011;25451;51.960;6.250;2023-04-25T13:13:39;5.40;;;1.03;;
39772;SDS011;25451;51.960;6.250;2023-04-25T13:16:05;5.93;;;1.10;;
39772;SDS011;25451;51.960;6.250;2023-04-25T13:18:31;4.57;;;1.25;;
39772;SDS011;25451;51.960;6.250;2023-04-25T13:20:57;4.37;;;0.90;;
39772;SDS011;25451;51.960;6.250;2023-04-25T13:23:24;4.30;;;0.88;;
39772;SDS011;25451;51.960;6.250;2023-04-25T13:25:50;1.98;;;0.75;;
39772;SDS011;25451;51.960;6.250;2023-04-25T13:28:15;3.70;;;0.70;;
39772;SDS011;25451;51.960;6.250;2023-04-25T13:30:41;3.30;;;0.87;;
39772;SDS011;25451;51.960;6.250;2023-04-25T13:33:06;5.18;;;0.82;;
39772;SDS011;25451;51.960;6.250;2023-04-25T13:35:32;2.67;;;0.70;;
39772;SDS011;25451;51.960;6.250;2023-04-25T13:37:59;3.17;;;0.88;;
39772;SDS011;25451;51.960;6.250;2023-04-25T13:40:25;3.30;;;0.90;;
39772;SDS011;25451;51.960;6.250;2023-04-25T13:42:51;3.65;;;0.80;;
39772;SDS011;25451;51.960;6.250;2023-04-25T13:45:17;2.77;;;0.80;;
39772;SDS011;25451;51.960;6.250;2023-04-25T13:47:42;3.15;;;0.90;;
39772;SDS011;25451;51.960;6.250;2023-04-25T13:50:08;3.47;;;0.90;;
39772;SDS011;25451;51.960;6.250;2023-04-25T13:52:34;2.50;;;0.80;;
39772;SDS011;25451;51.960;6.250;2023-04-25T13:55:00;3.95;;;0.68;;
39772;SDS011;25451;51.960;6.250;2023-04-25T13:57:27;3.03;;;0.98;;
39772;SDS011;25451;51.960;6.250;2023-04-25T13:59:53;4.17;;;1.00;;
39772;SDS011;25451;51.960;6.250;2023-04-25T14:02:18;2.50;;;0.77;;
39772;SDS011;25451;51.960;6.250;2023-04-25T14:04:43;4.63;;;0.90;;
39772;SDS011;25451;51.960;6.250;2023-04-25T14:07:09;2.57;;;0.80;;
39772;SDS011;25451;51.960;6.250;2023-04-25T14:09:35;3.38;;;0.80;;
39772;SDS011;25451;51.960;6.250;2023-04-25T14:12:01;3.67;;;0.70;;
39772;SDS011;25451;51.960;6.250;2023-04-25T14:14:27;1.80;;;0.70;;
39772;SDS011;25451;51.960;6.250;2023-04-25T14:16:53;2.30;;;0.67;;
39772;SDS011;25451;51.960;6.250;2023-04-25T14:19:19;4.07;;;0.80;;
39772;SDS011;25451;51.960;6.250;2023-04-25T14:21:47;3.95;;;1.58;;
39772;SDS011;25451;51.960;6.250;2023-04-25T14:24:13;2.87;;;0.90;;
39772;SDS011;25451;51.960;6.250;2023-04-25T14:26:38;3.20;;;0.80;;
39772;SDS011;25451;51.960;6.250;2023-04-25T14:29:04;4.03;;;0.90;;
39772;SDS011;25451;51.960;6.250;2023-04-25T14:31:30;2.47;;;0.85;;
39772;SDS011;25451;51.960;6.250;2023-04-25T14:33:56;3.30;;;1.00;;
39772;SDS011;25451;51.960;6.250;2023-04-25T14:36:21;6.00;;;1.10;;
39772;SDS011;25451;51.960;6.250;2023-04-25T14:38:47;4.57;;;0.83;;
39772;SDS011;25451;51.960;6.250;2023-04-25T14:41:12;5.07;;;0.93;;